Time,TemperatureF,DewpointF,PressureIn,WindDirection,WindDirectionDegrees,WindSpeedMPH,WindSpeedGustMPH,Humidity,HourlyPrecipIn,Conditions,Clouds,dailyrainin,SoftwareType,DateUTC
2013-08-07 00:00:00,75.0,71.2,29.95,SE,131,0.0,0.0,88,0.00,,,0.00,VWS V14.01,2013-08-07 04:00:00,
2013-08-07 00:01:00,75.0,71.2,29.95,SE,131,0.0,0.0,88,0.00,,,0.00,VWS V14.01,2013-08-07 04:01:00,
2013-08-07 00:06:00,74.9,71.1,29.95,SE,131,0.0,0.0,88,0.00,,,0.00,VWS V14.01,2013-08-07 04:06:00,
2013-08-07 00:11:00,74.4,70.6,29.95,SE,131,0.0,0.0,88,0.00,,,0.00,VWS V14.01,2013-08-07 04:11:00,
2013-08-07 00:16:00,74.1,70.7,29.95,SE,132,0.0,0.0,89,0.00,,,0.00,VWS V14.01,2013-08-07 04:16:00,
2013-08-07 00:21:00,73.8,70.7,29.95,SE,131,0.0,0.0,90,0.00,,,0.00,VWS V14.01,2013-08-07 04:21:00,
2013-08-07 00:26:00,73.6,70.5,29.95,SE,131,0.0,0.0,90,0.00,,,0.00,VWS V14.01,2013-08-07 04:26:00,
2013-08-07 00:31:00,73.4,70.3,29.95,SE,131,0.0,0.0,90,0.00,,,0.00,VWS V14.01,2013-08-07 04:31:00,
2013-08-07 00:36:00,73.3,70.5,29.95,SE,131,0.0,0.0,91,0.00,,,0.00,VWS V14.01,2013-08-07 04:36:00,
2013-08-07 00:41:00,73.2,70.4,29.95,SE,131,0.0,0.0,91,0.00,,,0.00,VWS V14.01,2013-08-07 04:41:00,
2013-08-07 00:46:00,73.1,70.3,29.95,SE,124,0.0,0.0,91,0.00,,,0.00,VWS V14.01,2013-08-07 04:46:00,
2013-08-07 00:51:00,73.0,70.5,29.95,SE,127,0.0,0.0,92,0.00,,,0.00,VWS V14.01,2013-08-07 04:51:00,
2013-08-07 00:56:00,72.8,70.0,29.95,SE,127,0.0,0.0,91,0.00,,,0.00,VWS V14.01,2013-08-07 04:56:00,
2013-08-07 01:01:00,72.6,69.8,29.95,SE,127,0.0,0.0,91,0.00,,,0.00,VWS V14.01,2013-08-07 05:01:00,
2013-08-07 01:06:00,72.4,69.6,29.96,SE,127,0.0,0.0,91,0.00,,,0.00,VWS V14.01,2013-08-07 05:06:00,
2013-08-07 01:11:00,72.5,70.1,29.96,SE,127,0.0,0.0,92,0.00,,,0.00,VWS V14.01,2013-08-07 05:11:00,
2013-08-07 01:16:00,72.6,70.2,29.96,SE,127,0.0,0.0,92,0.00,,,0.00,VWS V14.01,2013-08-07 05:16:00,
2013-08-07 01:21:00,72.4,69.9,29.96,SE,127,0.0,0.0,92,0.00,,,0.00,VWS V14.01,2013-08-07 05:21:00,
2013-08-07 01:26:00,72.2,69.8,29.96,SE,127,0.0,0.0,92,0.00,,,0.00,VWS V14.01,2013-08-07 05:26:00,
2013-08-07 01:31:00,72.0,69.6,29.96,SE,127,0.0,0.0,92,0.00,,,0.00,VWS V14.01,2013-08-07 05:31:00,
2013-08-07 01:36:00,72.1,70.0,29.96,SE,124,0.0,0.0,93,0.00,,,0.00,VWS V14.01,2013-08-07 05:36:00,
2013-08-07 01:41:00,72.1,70.0,29.96,ESE,123,0.0,0.0,93,0.00,,,0.00,VWS V14.01,2013-08-07 05:41:00,
2013-08-07 01:46:00,72.1,70.0,29.96,ESE,123,0.0,0.0,93,0.00,,,0.00,VWS V14.01,2013-08-07 05:46:00,
2013-08-07 01:51:00,72.1,70.0,29.96,ESE,123,0.0,0.0,93,0.00,,,0.00,VWS V14.01,2013-08-07 05:51:00,
2013-08-07 01:56:00,72.1,70.0,29.96,ESE,123,0.0,0.0,93,0.00,,,0.00,VWS V14.01,2013-08-07 05:56:00,
2013-08-07 02:01:00,72.1,70.0,29.96,ESE,123,0.0,0.0,93,0.00,,,0.00,VWS V14.01,2013-08-07 06:01:00,
2013-08-07 02:06:00,72.3,70.2,29.96,ESE,122,0.0,0.0,93,0.00,,,0.00,VWS V14.01,2013-08-07 06:06:00,
2013-08-07 02:11:00,72.3,70.2,29.96,ESE,122,0.0,0.0,93,0.00,,,0.00,VWS V14.01,2013-08-07 06:11:00,
2013-08-07 02:16:00,72.2,70.1,29.96,ESE,123,0.0,0.0,93,0.00,,,0.00,VWS V14.01,2013-08-07 06:16:00,
2013-08-07 02:21:00,72.2,70.1,29.96,ESE,122,0.0,0.0,93,0.00,,,0.00,VWS V14.01,2013-08-07 06:21:00,
2013-08-07 02:26:00,72.2,70.1,29.96,ESE,123,0.0,0.0,93,0.00,,,0.00,VWS V14.01,2013-08-07 06:26:00,
2013-08-07 02:30:00,72.3,70.2,29.97,ESE,122,0.0,0.0,93,0.00,,,0.00,VWS V14.01,2013-08-07 06:30:00,
2013-08-07 02:35:00,72.4,70.3,29.97,ESE,122,0.0,0.0,93,0.00,,,0.00,VWS V14.01,2013-08-07 06:35:00,
2013-08-07 02:40:00,72.4,70.3,29.96,ESE,123,0.0,0.0,93,0.00,,,0.00,VWS V14.01,2013-08-07 06:40:00,
2013-08-07 02:45:00,72.5,70.4,29.97,ESE,123,0.0,0.0,93,0.00,,,0.00,VWS V14.01,2013-08-07 06:45:00,
2013-08-07 02:50:00,72.5,70.4,29.97,ESE,120,0.0,0.0,93,0.00,,,0.00,VWS V14.01,2013-08-07 06:50:00,
2013-08-07 02:55:00,72.5,70.4,29.97,ESE,120,0.0,0.0,93,0.00,,,0.00,VWS V14.01,2013-08-07 06:55:00,
2013-08-07 03:00:00,72.5,70.4,29.97,ESE,120,0.0,0.0,93,0.00,,,0.00,VWS V14.01,2013-08-07 07:00:00,
2013-08-07 03:05:00,72.5,70.4,29.97,ESE,120,0.0,0.0,93,0.00,,,0.00,VWS V14.01,2013-08-07 07:05:00,
2013-08-07 03:10:00,72.5,70.4,29.96,ESE,120,0.0,0.0,93,0.00,,,0.00,VWS V14.01,2013-08-07 07:10:00,
2013-08-07 03:15:00,72.5,70.4,29.96,ESE,120,0.0,0.0,93,0.00,,,0.00,VWS V14.01,2013-08-07 07:15:00,
2013-08-07 03:20:00,72.5,70.4,29.96,ESE,120,0.0,0.0,93,0.00,,,0.00,VWS V14.01,2013-08-07 07:20:00,
2013-08-07 03:25:00,72.4,70.3,29.96,ESE,120,0.0,0.0,93,0.00,,,0.00,VWS V14.01,2013-08-07 07:25:00,
2013-08-07 03:30:00,72.4,70.3,29.96,SE,126,0.0,0.0,93,0.00,,,0.00,VWS V14.01,2013-08-07 07:30:00,
2013-08-07 03:35:00,72.6,70.5,29.96,SE,129,0.0,0.0,93,0.00,,,0.00,VWS V14.01,2013-08-07 07:35:00,
2013-08-07 03:40:00,72.6,70.8,29.96,SE,128,0.0,0.0,94,0.00,,,0.00,VWS V14.01,2013-08-07 07:40:00,
2013-08-07 03:45:00,72.7,70.6,29.96,SE,128,0.0,0.0,93,0.00,,,0.00,VWS V14.01,2013-08-07 07:45:00,
2013-08-07 03:50:00,72.8,70.7,29.96,SE,127,0.0,0.0,93,0.00,,,0.00,VWS V14.01,2013-08-07 07:50:00,
2013-08-07 03:55:00,72.8,70.7,29.96,SE,127,0.0,0.0,93,0.00,,,0.00,VWS V14.01,2013-08-07 07:55:00,
2013-08-07 04:00:00,72.9,71.1,29.96,SE,127,0.0,0.0,94,0.00,,,0.00,VWS V14.01,2013-08-07 08:00:00,
2013-08-07 04:05:00,73.0,71.2,29.95,SE,131,0.0,0.0,94,0.00,,,0.00,VWS V14.01,2013-08-07 08:05:00,
2013-08-07 04:10:00,73.1,71.3,29.95,SE,131,0.0,0.0,94,0.00,,,0.00,VWS V14.01,2013-08-07 08:10:00,
2013-08-07 04:15:00,73.2,71.4,29.95,SE,131,0.0,0.0,94,0.00,,,0.00,VWS V14.01,2013-08-07 08:15:00,
2013-08-07 04:20:00,73.3,71.5,29.95,SE,131,0.0,0.0,94,0.00,,,0.00,VWS V14.01,2013-08-07 08:20:00,
2013-08-07 04:25:00,73.3,71.5,29.95,SE,131,0.0,0.0,94,0.00,,,0.00,VWS V14.01,2013-08-07 08:25:00,
2013-08-07 04:30:00,73.1,71.0,29.95,SE,131,0.0,0.0,93,0.00,,,0.00,VWS V14.01,2013-08-07 08:30:00,
2013-08-07 04:35:00,72.8,70.7,29.95,SE,131,0.0,0.0,93,0.00,,,0.00,VWS V14.01,2013-08-07 08:35:00,
2013-08-07 04:40:00,72.7,70.6,29.95,ESE,123,0.0,0.0,93,0.00,,,0.00,VWS V14.01,2013-08-07 08:40:00,
2013-08-07 04:45:00,72.6,70.5,29.95,ESE,123,0.0,0.0,93,0.00,,,0.00,VWS V14.01,2013-08-07 08:45:00,
2013-08-07 04:50:00,72.3,70.2,29.95,ESE,122,0.0,0.0,93,0.00,,,0.00,VWS V14.01,2013-08-07 08:50:00,
2013-08-07 04:55:00,72.3,70.5,29.94,ESE,122,0.0,0.0,94,0.00,,,0.00,VWS V14.01,2013-08-07 08:55:00,
2013-08-07 05:00:00,72.4,70.6,29.94,SE,124,0.0,0.0,94,0.00,,,0.00,VWS V14.01,2013-08-07 09:00:00,
2013-08-07 05:05:00,72.3,70.5,29.94,SE,124,0.0,0.0,94,0.00,,,0.00,VWS V14.01,2013-08-07 09:05:00,
2013-08-07 05:10:00,72.1,70.3,29.94,SE,125,0.0,0.0,94,0.00,,,0.00,VWS V14.01,2013-08-07 09:10:00,
2013-08-07 05:15:00,72.0,70.2,29.94,SE,124,0.0,0.0,94,0.00,,,0.00,VWS V14.01,2013-08-07 09:15:00,
2013-08-07 05:20:00,72.2,70.7,29.94,SE,130,0.0,0.0,95,0.00,,,0.00,VWS V14.01,2013-08-07 09:20:00,
2013-08-07 05:25:00,71.9,70.1,29.93,SE,130,0.0,0.0,94,0.00,,,0.00,VWS V14.01,2013-08-07 09:25:00,
2013-08-07 05:30:00,72.1,70.6,29.93,SE,130,0.0,0.0,95,0.00,,,0.00,VWS V14.01,2013-08-07 09:30:00,
2013-08-07 05:35:00,72.0,70.2,29.94,SE,130,0.0,0.0,94,0.00,,,0.00,VWS V14.01,2013-08-07 09:35:00,
2013-08-07 05:40:00,72.0,70.5,29.94,SE,130,0.0,0.0,95,0.00,,,0.00,VWS V14.01,2013-08-07 09:40:00,
2013-08-07 05:45:00,72.2,70.7,29.94,SE,130,0.0,0.0,95,0.00,,,0.00,VWS V14.01,2013-08-07 09:45:00,
2013-08-07 05:50:00,72.2,70.7,29.95,SE,130,0.0,0.0,95,0.00,,,0.00,VWS V14.01,2013-08-07 09:50:00,
2013-08-07 05:55:00,72.2,70.7,29.95,SE,130,0.0,0.0,95,0.00,,,0.00,VWS V14.01,2013-08-07 09:55:00,
2013-08-07 06:00:00,72.4,70.9,29.95,SE,130,0.0,0.0,95,0.00,,,0.00,VWS V14.01,2013-08-07 10:00:00,
2013-08-07 06:05:00,72.5,71.0,29.95,SE,130,0.0,0.0,95,0.00,,,0.00,VWS V14.01,2013-08-07 10:05:00,
2013-08-07 06:10:00,72.7,71.2,29.95,SE,130,0.0,0.0,95,0.00,,,0.00,VWS V14.01,2013-08-07 10:10:00,
2013-08-07 06:15:00,72.9,71.4,29.95,SSE,148,3.2,3.2,95,0.00,,,0.00,VWS V14.01,2013-08-07 10:15:00,
2013-08-07 06:20:00,73.4,71.9,29.96,SSE,160,3.2,3.2,95,0.00,,,0.00,VWS V14.01,2013-08-07 10:20:00,
2013-08-07 06:25:00,73.6,72.1,29.96,SSE,153,0.0,1.6,95,0.00,,,0.00,VWS V14.01,2013-08-07 10:25:00,
2013-08-07 06:30:00,73.7,72.2,29.95,SSE,153,0.0,1.6,95,0.00,,,0.00,VWS V14.01,2013-08-07 10:30:00,
2013-08-07 06:35:00,73.8,72.3,29.96,SSE,156,0.0,3.2,95,0.00,,,0.00,VWS V14.01,2013-08-07 10:35:00,
2013-08-07 06:40:00,73.9,72.4,29.96,SSE,153,1.6,1.6,95,0.00,,,0.00,VWS V14.01,2013-08-07 10:40:00,
2013-08-07 06:45:00,74.0,72.5,29.96,SSE,152,1.6,1.6,95,0.00,,,0.00,VWS V14.01,2013-08-07 10:45:00,
2013-08-07 06:50:00,74.0,72.5,29.96,SSE,152,0.0,1.6,95,0.00,,,0.00,VWS V14.01,2013-08-07 10:50:00,
2013-08-07 06:55:00,74.1,72.6,29.96,SSE,153,0.0,1.6,95,0.00,,,0.00,VWS V14.01,2013-08-07 10:55:00,
2013-08-07 07:00:00,74.1,72.6,29.96,SSE,153,0.0,0.0,95,0.00,,,0.00,VWS V14.01,2013-08-07 11:00:00,
2013-08-07 07:05:00,74.1,72.6,29.96,SSE,153,0.0,0.0,95,0.00,,,0.00,VWS V14.01,2013-08-07 11:05:00,
2013-08-07 07:10:00,74.2,72.7,29.96,SSE,153,0.0,1.6,95,0.00,,,0.00,VWS V14.01,2013-08-07 11:10:00,
2013-08-07 07:15:00,74.2,72.7,29.96,SSE,160,1.6,3.2,95,0.00,,,0.00,VWS V14.01,2013-08-07 11:15:00,
2013-08-07 07:20:00,74.2,72.7,29.96,SSE,158,1.6,3.2,95,0.00,,,0.00,VWS V14.01,2013-08-07 11:20:00,
2013-08-07 07:25:00,74.2,72.7,29.96,SSE,156,0.0,3.2,95,0.00,,,0.00,VWS V14.01,2013-08-07 11:25:00,
2013-08-07 07:30:00,74.2,72.7,29.96,SSE,148,0.0,1.6,95,0.00,,,0.00,VWS V14.01,2013-08-07 11:30:00,
2013-08-07 07:35:00,74.3,72.8,29.97,South,173,4.8,4.8,95,0.00,,,0.00,VWS V14.01,2013-08-07 11:35:00,
2013-08-07 07:40:00,74.2,72.4,29.97,South,175,3.2,6.4,94,0.00,,,0.00,VWS V14.01,2013-08-07 11:40:00,
2013-08-07 07:45:00,74.1,72.6,29.97,South,176,3.2,8.0,95,0.00,,,0.00,VWS V14.01,2013-08-07 11:45:00,
2013-08-07 07:50:00,74.1,72.6,29.97,South,173,1.6,3.2,95,0.00,,,0.00,VWS V14.01,2013-08-07 11:50:00,
2013-08-07 07:55:00,74.1,72.6,29.97,South,175,1.6,3.2,95,0.00,,,0.00,VWS V14.01,2013-08-07 11:55:00,
2013-08-07 08:00:00,74.1,72.6,29.97,South,176,3.2,3.2,95,0.00,,,0.00,VWS V14.01,2013-08-07 12:00:00,
2013-08-07 08:05:00,74.2,72.7,29.97,South,173,1.6,1.6,95,0.00,,,0.00,VWS V14.01,2013-08-07 12:05:00,
2013-08-07 08:10:00,74.3,72.8,29.97,South,170,0.0,1.6,95,0.00,,,0.00,VWS V14.01,2013-08-07 12:10:00,
2013-08-07 08:15:00,74.5,73.0,29.97,SSE,165,1.6,3.2,95,0.00,,,0.00,VWS V14.01,2013-08-07 12:15:00,
2013-08-07 08:20:00,74.5,73.0,29.97,South,177,3.2,4.8,95,0.00,,,0.00,VWS V14.01,2013-08-07 12:20:00,
2013-08-07 08:25:00,74.6,72.8,29.96,South,176,3.2,4.8,94,0.00,,,0.00,VWS V14.01,2013-08-07 12:25:00,
2013-08-07 08:30:00,74.6,72.8,29.96,South,173,0.0,6.4,94,0.00,,,0.00,VWS V14.01,2013-08-07 12:30:00,
2013-08-07 08:35:00,74.7,72.9,29.96,SSE,167,0.0,6.4,94,0.00,,,0.00,VWS V14.01,2013-08-07 12:35:00,
2013-08-07 08:40:00,74.7,72.9,29.96,SE,146,0.0,4.8,94,0.00,,,0.00,VWS V14.01,2013-08-07 12:40:00,
2013-08-07 08:45:00,74.9,73.1,29.96,SW,225,6.4,8.0,94,0.00,,,0.00,VWS V14.01,2013-08-07 12:45:00,
2013-08-07 08:50:00,75.1,73.3,29.96,SW,233,8.0,8.0,94,0.00,,,0.00,VWS V14.01,2013-08-07 12:50:00,
2013-08-07 08:55:00,75.4,73.2,29.96,WSW,243,4.8,4.8,93,0.00,,,0.00,VWS V14.01,2013-08-07 12:55:00,
2013-08-07 09:00:00,75.8,73.6,29.96,WSW,240,4.8,4.8,93,0.00,,,0.00,VWS V14.01,2013-08-07 13:00:00,
2013-08-07 09:05:00,76.2,73.7,29.96,WSW,241,1.6,4.8,92,0.00,,,0.00,VWS V14.01,2013-08-07 13:05:00,
2013-08-07 09:10:00,76.6,73.8,29.96,SW,233,3.2,4.8,91,0.00,,,0.00,VWS V14.01,2013-08-07 13:10:00,
2013-08-07 09:15:00,77.0,74.2,29.96,ESE,121,0.0,6.4,91,0.00,,,0.00,VWS V14.01,2013-08-07 13:15:00,
2013-08-07 09:20:00,77.4,73.9,29.96,South,179,6.4,8.0,89,0.00,,,0.00,VWS V14.01,2013-08-07 13:20:00,
2013-08-07 09:25:00,77.9,73.7,29.96,South,189,4.8,9.6,87,0.00,,,0.00,VWS V14.01,2013-08-07 13:25:00,
2013-08-07 09:30:00,78.3,74.1,29.95,SW,235,3.2,6.4,87,0.00,,,0.00,VWS V14.01,2013-08-07 13:30:00,
2013-08-07 09:34:00,78.9,74.4,29.95,SW,224,9.6,11.2,86,0.00,,,0.00,VWS V14.01,2013-08-07 13:34:00,
2013-08-07 09:39:00,79.3,74.4,29.96,SSW,193,3.2,3.2,85,0.00,,,0.00,VWS V14.01,2013-08-07 13:39:00,
2013-08-07 09:44:00,79.5,73.5,29.96,SW,227,8.0,11.2,82,0.00,,,0.00,VWS V14.01,2013-08-07 13:44:00,
2013-08-07 09:49:00,79.8,74.2,29.96,South,170,3.2,4.8,83,0.00,,,0.00,VWS V14.01,2013-08-07 13:49:00,
2013-08-07 09:54:00,80.1,73.8,29.97,South,190,1.6,6.4,81,0.00,,,0.00,VWS V14.01,2013-08-07 13:54:00,
2013-08-07 09:59:00,80.0,73.3,29.97,SSW,204,6.4,12.8,80,0.00,,,0.00,VWS V14.01,2013-08-07 13:59:00,
2013-08-07 10:04:00,80.4,73.7,29.97,SSW,211,1.6,6.4,80,0.00,,,0.00,VWS V14.01,2013-08-07 14:04:00,
2013-08-07 10:09:00,80.4,73.3,29.97,WSW,243,6.4,11.2,79,0.00,,,0.00,VWS V14.01,2013-08-07 14:09:00,
2013-08-07 10:14:00,80.5,73.4,29.98,WSW,246,1.6,9.6,79,0.00,,,0.00,VWS V14.01,2013-08-07 14:14:00,
2013-08-07 10:19:00,80.5,73.8,29.98,SW,232,6.4,11.2,80,0.00,,,0.00,VWS V14.01,2013-08-07 14:19:00,
2013-08-07 10:20:00,80.5,73.8,29.98,WSW,247,3.2,11.2,80,0.00,,,0.00,VWS V14.01,2013-08-07 14:20:00,
2013-08-07 10:25:00,80.3,73.2,29.98,SSW,204,8.0,12.8,79,0.00,,,0.00,VWS V14.01,2013-08-07 14:25:00,
2013-08-07 10:30:00,80.3,73.6,29.98,SSW,205,3.2,9.6,80,0.00,,,0.00,VWS V14.01,2013-08-07 14:30:00,
2013-08-07 10:35:00,80.4,73.3,29.98,SSW,208,8.0,11.2,79,0.00,,,0.00,VWS V14.01,2013-08-07 14:35:00,
2013-08-07 10:40:00,80.5,73.4,29.98,SW,220,6.4,11.2,79,0.00,,,0.00,VWS V14.01,2013-08-07 14:40:00,
2013-08-07 10:45:00,80.6,73.1,29.98,WSW,247,8.0,12.8,78,0.00,,,0.00,VWS V14.01,2013-08-07 14:45:00,
2013-08-07 10:50:00,81.1,73.2,29.98,SSE,160,8.0,11.2,77,0.00,,,0.00,VWS V14.01,2013-08-07 14:50:00,
2013-08-07 10:55:00,81.2,73.3,29.98,SW,225,8.0,9.6,77,0.00,,,0.00,VWS V14.01,2013-08-07 14:55:00,
2013-08-07 11:00:00,81.8,73.9,29.98,WSW,242,1.6,6.4,77,0.00,,,0.00,VWS V14.01,2013-08-07 15:00:00,
2013-08-07 11:05:00,81.7,73.4,29.97,SSW,206,16.0,19.2,76,0.00,,,0.00,VWS V14.01,2013-08-07 15:05:00,
2013-08-07 11:10:00,81.4,72.7,29.97,SW,220,6.4,11.2,75,0.00,,,0.00,VWS V14.01,2013-08-07 15:10:00,
2013-08-07 11:15:00,81.3,73.0,29.97,SSW,210,6.4,9.6,76,0.00,,,0.00,VWS V14.01,2013-08-07 15:15:00,
2013-08-07 11:20:00,81.8,73.1,29.97,SSW,208,8.0,12.8,75,0.00,,,0.00,VWS V14.01,2013-08-07 15:20:00,
2013-08-07 11:25:00,82.3,73.2,29.96,South,185,4.8,11.2,74,0.00,,,0.00,VWS V14.01,2013-08-07 15:25:00,
2013-08-07 11:29:00,82.2,73.1,29.96,SW,220,8.0,12.8,74,0.00,,,0.00,VWS V14.01,2013-08-07 15:29:00,
2013-08-07 11:34:00,82.2,73.1,29.96,SSW,213,3.2,11.2,74,0.00,,,0.00,VWS V14.01,2013-08-07 15:34:00,
2013-08-07 11:39:00,82.4,73.3,29.96,SW,231,9.6,11.2,74,0.00,,,0.00,VWS V14.01,2013-08-07 15:39:00,
2013-08-07 11:44:00,82.4,72.9,29.96,SSW,206,8.0,16.0,73,0.00,,,0.00,VWS V14.01,2013-08-07 15:44:00,
2013-08-07 11:49:00,82.7,73.2,29.96,WSW,245,8.0,12.8,73,0.00,,,0.00,VWS V14.01,2013-08-07 15:49:00,
2013-08-07 11:54:00,82.7,72.8,29.96,SW,231,3.2,14.4,72,0.00,,,0.00,VWS V14.01,2013-08-07 15:54:00,
2013-08-07 11:59:00,82.7,73.6,29.95,SSW,201,3.2,11.2,74,0.00,,,0.00,VWS V14.01,2013-08-07 15:59:00,
2013-08-07 12:04:00,82.9,73.4,29.95,South,170,4.8,12.8,73,0.00,,,0.00,VWS V14.01,2013-08-07 16:04:00,
2013-08-07 12:09:00,82.9,73.4,29.95,SW,224,4.8,11.2,73,0.00,,,0.00,VWS V14.01,2013-08-07 16:09:00,
2013-08-07 12:14:00,82.8,73.7,29.95,SW,234,9.6,12.8,74,0.00,,,0.00,VWS V14.01,2013-08-07 16:14:00,
2013-08-07 12:19:00,82.7,73.6,29.95,SSW,213,9.6,12.8,74,0.00,,,0.00,VWS V14.01,2013-08-07 16:19:00,
2013-08-07 12:24:00,82.8,73.7,29.95,SW,224,4.8,16.0,74,0.00,,,0.00,VWS V14.01,2013-08-07 16:24:00,
2013-08-07 12:29:00,83.0,73.1,29.95,WSW,239,6.4,16.0,72,0.00,,,0.00,VWS V14.01,2013-08-07 16:29:00,
2013-08-07 12:34:00,82.8,73.7,29.95,West,266,6.4,12.8,74,0.00,,,0.00,VWS V14.01,2013-08-07 16:34:00,
2013-08-07 12:39:00,83.1,74.0,29.95,SW,215,3.2,6.4,74,0.00,,,0.00,VWS V14.01,2013-08-07 16:39:00,
2013-08-07 12:44:00,83.0,73.1,29.95,SSW,212,4.8,9.6,72,0.00,,,0.00,VWS V14.01,2013-08-07 16:44:00,
2013-08-07 12:49:00,83.0,73.5,29.95,South,190,3.2,14.4,73,0.00,,,0.00,VWS V14.01,2013-08-07 16:49:00,
2013-08-07 12:54:00,83.1,73.1,29.95,SSW,197,3.2,17.6,72,0.00,,,0.00,VWS V14.01,2013-08-07 16:54:00,
2013-08-07 12:59:00,83.0,73.5,29.95,South,189,4.8,11.2,73,0.00,,,0.00,VWS V14.01,2013-08-07 16:59:00,
2013-08-07 13:04:00,82.8,73.3,29.95,SW,236,8.0,11.2,73,0.00,,,0.00,VWS V14.01,2013-08-07 17:04:00,
2013-08-07 13:09:00,82.8,73.3,29.95,South,175,3.2,9.6,73,0.00,,,0.00,VWS V14.01,2013-08-07 17:09:00,
2013-08-07 13:14:00,82.9,73.8,29.95,ESE,112,0.0,8.0,74,0.00,,,0.00,VWS V14.01,2013-08-07 17:14:00,
2013-08-07 13:19:00,82.9,73.4,29.95,SW,227,4.8,9.6,73,0.00,,,0.00,VWS V14.01,2013-08-07 17:19:00,
2013-08-07 13:24:00,83.0,73.5,29.95,WSW,247,1.6,12.8,73,0.00,,,0.00,VWS V14.01,2013-08-07 17:24:00,
2013-08-07 13:29:00,83.1,74.0,29.94,SW,234,1.6,9.6,74,0.00,,,0.00,VWS V14.01,2013-08-07 17:29:00,
2013-08-07 13:34:00,83.0,73.9,29.95,SSW,198,1.6,4.8,74,0.00,,,0.00,VWS V14.01,2013-08-07 17:34:00,
2013-08-07 13:39:00,82.9,73.4,29.95,WSW,243,9.6,11.2,73,0.00,,,0.00,VWS V14.01,2013-08-07 17:39:00,
2013-08-07 13:44:00,82.7,74.0,29.95,SW,224,9.6,11.2,75,0.00,,,0.00,VWS V14.01,2013-08-07 17:44:00,
2013-08-07 13:49:00,82.7,73.6,29.95,SW,222,4.8,9.6,74,0.00,,,0.00,VWS V14.01,2013-08-07 17:49:00,
2013-08-07 13:54:00,82.4,73.3,29.95,South,185,1.6,14.4,74,0.00,,,0.00,VWS V14.01,2013-08-07 17:54:00,
2013-08-07 13:59:00,82.3,73.6,29.94,SSW,193,3.2,9.6,75,0.00,,,0.00,VWS V14.01,2013-08-07 17:59:00,
2013-08-07 14:04:00,82.5,73.8,29.94,WSW,239,4.8,8.0,75,0.00,,,0.00,VWS V14.01,2013-08-07 18:04:00,
2013-08-07 14:09:00,82.8,74.5,29.94,SW,215,6.4,6.4,76,0.00,,,0.00,VWS V14.01,2013-08-07 18:09:00,
2013-08-07 14:14:00,83.3,74.2,29.93,WSW,250,1.6,8.0,74,0.00,,,0.00,VWS V14.01,2013-08-07 18:14:00,
2013-08-07 14:19:00,83.4,73.8,29.94,SW,233,6.4,9.6,73,0.00,,,0.00,VWS V14.01,2013-08-07 18:19:00,
2013-08-07 14:24:00,83.2,74.1,29.94,WSW,257,3.2,11.2,74,0.00,,,0.00,VWS V14.01,2013-08-07 18:24:00,
2013-08-07 14:29:00,83.3,74.6,29.93,SSE,156,4.8,8.0,75,0.00,,,0.00,VWS V14.01,2013-08-07 18:29:00,
2013-08-07 14:34:00,83.3,74.6,29.94,SSW,207,3.2,6.4,75,0.00,,,0.00,VWS V14.01,2013-08-07 18:34:00,
2013-08-07 14:39:00,83.3,74.2,29.93,South,170,1.6,6.4,74,0.00,,,0.00,VWS V14.01,2013-08-07 18:39:00,
2013-08-07 14:44:00,83.7,74.5,29.93,WSW,240,6.4,8.0,74,0.00,,,0.00,VWS V14.01,2013-08-07 18:44:00,
2013-08-07 14:49:00,83.7,74.9,29.93,South,182,4.8,8.0,75,0.00,,,0.00,VWS V14.01,2013-08-07 18:49:00,
2013-08-07 14:54:00,84.4,75.2,29.93,SSE,156,3.2,8.0,74,0.00,,,0.00,VWS V14.01,2013-08-07 18:54:00,
2013-08-07 14:59:00,85.0,75.0,29.93,South,180,3.2,8.0,72,0.00,,,0.00,VWS V14.01,2013-08-07 18:59:00,
2013-08-07 15:04:00,85.0,75.4,29.93,SW,225,3.2,9.6,73,0.00,,,0.00,VWS V14.01,2013-08-07 19:04:00,
2013-08-07 15:09:00,85.1,75.5,29.93,SW,222,6.4,8.0,73,0.00,,,0.00,VWS V14.01,2013-08-07 19:09:00,
2013-08-07 15:14:00,85.3,75.7,29.92,ESE,117,6.4,9.6,73,0.00,,,0.00,VWS V14.01,2013-08-07 19:14:00,
2013-08-07 15:19:00,85.7,75.6,29.92,SW,236,6.4,11.2,72,0.00,,,0.00,VWS V14.01,2013-08-07 19:19:00,
2013-08-07 15:26:00,85.3,74.8,29.92,WSW,248,6.4,8.0,71,0.00,,,0.00,VWS V14.01,2013-08-07 19:26:00,
2013-08-07 15:31:00,84.9,75.3,29.92,WSW,243,3.2,3.2,73,0.00,,,0.00,VWS V14.01,2013-08-07 19:31:00,
2013-08-07 15:36:00,85.0,74.6,29.92,WSW,245,4.8,8.0,71,0.00,,,0.00,VWS V14.01,2013-08-07 19:36:00,
2013-08-07 15:41:00,85.0,75.0,29.92,WNW,302,4.8,6.4,72,0.00,,,0.00,VWS V14.01,2013-08-07 19:41:00,
2013-08-07 15:46:00,85.5,75.4,29.91,SW,231,1.6,3.2,72,0.00,,,0.00,VWS V14.01,2013-08-07 19:46:00,
2013-08-07 15:51:00,85.8,75.3,29.91,SW,215,4.8,6.4,71,0.00,,,0.00,VWS V14.01,2013-08-07 19:51:00,
2013-08-07 15:56:00,86.3,74.9,29.90,SW,235,6.4,8.0,69,0.00,,,0.00,VWS V14.01,2013-08-07 19:56:00,
2013-08-07 16:01:00,86.1,74.8,29.90,SW,218,4.8,9.6,69,0.00,,,0.00,VWS V14.01,2013-08-07 20:01:00,
2013-08-07 16:06:00,85.8,75.3,29.90,ESE,107,1.6,4.8,71,0.00,,,0.00,VWS V14.01,2013-08-07 20:06:00,
2013-08-07 16:11:00,86.0,75.9,29.90,SW,215,1.6,3.2,72,0.00,,,0.00,VWS V14.01,2013-08-07 20:11:00,
2013-08-07 16:16:00,85.8,74.9,29.90,SW,235,4.8,4.8,70,0.00,,,0.00,VWS V14.01,2013-08-07 20:16:00,
2013-08-07 16:21:00,85.4,75.3,29.90,South,170,1.6,4.8,72,0.00,,,0.00,VWS V14.01,2013-08-07 20:21:00,
2013-08-07 16:26:00,85.7,75.2,29.90,SSE,155,3.2,3.2,71,0.00,,,0.00,VWS V14.01,2013-08-07 20:26:00,
2013-08-07 16:31:00,86.1,75.2,29.89,WNW,299,0.0,1.6,70,0.00,,,0.00,VWS V14.01,2013-08-07 20:31:00,
2013-08-07 16:36:00,86.2,75.3,29.89,SSW,206,4.8,4.8,70,0.00,,,0.00,VWS V14.01,2013-08-07 20:36:00,
2013-08-07 16:41:00,86.1,75.2,29.89,WSW,250,4.8,6.4,70,0.00,,,0.00,VWS V14.01,2013-08-07 20:41:00,
2013-08-07 16:46:00,85.6,76.0,29.89,SW,224,8.0,8.0,73,0.00,,,0.00,VWS V14.01,2013-08-07 20:46:00,
2013-08-07 16:51:00,85.0,75.8,29.89,WSW,242,6.4,11.2,74,0.00,,,0.00,VWS V14.01,2013-08-07 20:51:00,
2013-08-07 16:56:00,84.6,75.0,29.89,WSW,240,3.2,9.6,73,0.00,,,0.00,VWS V14.01,2013-08-07 20:56:00,
2013-08-07 17:01:00,84.9,75.7,29.88,SSW,205,6.4,9.6,74,0.00,,,0.00,VWS V14.01,2013-08-07 21:01:00,
2013-08-07 17:06:00,85.2,75.2,29.88,SSW,213,4.8,8.0,72,0.00,,,0.00,VWS V14.01,2013-08-07 21:06:00,
2013-08-07 17:11:00,85.4,75.8,29.88,ESE,123,1.6,3.2,73,0.00,,,0.00,VWS V14.01,2013-08-07 21:11:00,
2013-08-07 17:16:00,85.6,76.0,29.88,SSW,213,9.6,11.2,73,0.00,,,0.00,VWS V14.01,2013-08-07 21:16:00,
2013-08-07 17:21:00,85.6,75.1,29.89,SW,229,1.6,11.2,71,0.00,,,0.00,VWS V14.01,2013-08-07 21:21:00,
2013-08-07 17:26:00,85.4,74.9,29.89,WSW,253,6.4,11.2,71,0.00,,,0.00,VWS V14.01,2013-08-07 21:26:00,
2013-08-07 17:31:00,85.6,74.7,29.89,SSW,207,6.4,6.4,70,0.00,,,0.00,VWS V14.01,2013-08-07 21:31:00,
2013-08-07 17:36:00,86.3,75.8,29.89,SSW,198,0.0,4.8,71,0.00,,,0.00,VWS V14.01,2013-08-07 21:36:00,
2013-08-07 17:41:00,87.2,75.8,29.89,SSW,211,3.2,6.4,69,0.00,,,0.00,VWS V14.01,2013-08-07 21:41:00,
2013-08-07 17:46:00,87.2,75.8,29.89,WSW,241,6.4,6.4,69,0.00,,,0.00,VWS V14.01,2013-08-07 21:46:00,
2013-08-07 17:51:00,87.7,76.7,29.89,East,94,4.8,8.0,70,0.00,,,0.00,VWS V14.01,2013-08-07 21:51:00,
2013-08-07 17:56:00,88.0,76.1,29.89,SE,132,6.4,6.4,68,0.00,,,0.00,VWS V14.01,2013-08-07 21:56:00,
2013-08-07 18:01:00,87.8,75.0,29.89,SW,232,1.6,4.8,66,0.00,,,0.00,VWS V14.01,2013-08-07 22:01:00,
2013-08-07 18:06:00,87.4,75.1,29.89,SW,225,3.2,6.4,67,0.00,,,0.00,VWS V14.01,2013-08-07 22:06:00,
2013-08-07 18:11:00,86.7,75.3,29.90,WNW,289,3.2,4.8,69,0.00,,,0.00,VWS V14.01,2013-08-07 22:11:00,
2013-08-07 18:16:00,86.2,75.3,29.89,SW,231,3.2,4.8,70,0.00,,,0.00,VWS V14.01,2013-08-07 22:16:00,
2013-08-07 18:21:00,85.6,76.0,29.89,WSW,242,3.2,9.6,73,0.00,,,0.00,VWS V14.01,2013-08-07 22:21:00,
2013-08-07 18:26:00,85.2,75.6,29.89,South,169,3.2,6.4,73,0.00,,,0.00,VWS V14.01,2013-08-07 22:26:00,
2013-08-07 18:31:00,85.0,75.8,29.89,SSE,153,3.2,8.0,74,0.00,,,0.00,VWS V14.01,2013-08-07 22:31:00,
2013-08-07 18:36:00,84.9,75.7,29.89,SW,227,3.2,8.0,74,0.00,,,0.00,VWS V14.01,2013-08-07 22:36:00,
2013-08-07 18:41:00,84.9,75.7,29.89,ENE,73,3.2,4.8,74,0.00,,,0.00,VWS V14.01,2013-08-07 22:41:00,
2013-08-07 18:46:00,84.9,75.7,29.89,SSW,200,0.0,6.4,74,0.00,,,0.00,VWS V14.01,2013-08-07 22:46:00,
2013-08-07 18:51:00,84.7,75.5,29.89,South,189,1.6,6.4,74,0.00,,,0.00,VWS V14.01,2013-08-07 22:51:00,
2013-08-07 18:56:00,84.5,75.3,29.89,SW,215,3.2,8.0,74,0.00,,,0.00,VWS V14.01,2013-08-07 22:56:00,
2013-08-07 19:01:00,84.4,75.6,29.88,South,186,1.6,3.2,75,0.00,,,0.00,VWS V14.01,2013-08-07 23:01:00,
2013-08-07 19:06:00,84.3,75.5,29.88,SE,132,3.2,4.8,75,0.00,,,0.00,VWS V14.01,2013-08-07 23:06:00,
2013-08-07 19:11:00,84.0,75.2,29.88,SW,225,1.6,3.2,75,0.00,,,0.00,VWS V14.01,2013-08-07 23:11:00,
2013-08-07 19:16:00,83.8,75.0,29.88,South,191,1.6,4.8,75,0.00,,,0.00,VWS V14.01,2013-08-07 23:16:00,
2013-08-07 19:21:00,83.6,75.2,29.88,WSW,256,1.6,4.8,76,0.00,,,0.00,VWS V14.01,2013-08-07 23:21:00,
2013-08-07 19:26:00,83.4,75.1,29.89,SW,218,1.6,3.2,76,0.00,,,0.00,VWS V14.01,2013-08-07 23:26:00,
2013-08-07 19:31:00,83.4,75.1,29.89,SW,224,1.6,4.8,76,0.00,,,0.00,VWS V14.01,2013-08-07 23:31:00,
2013-08-07 19:36:00,83.1,74.8,29.89,SW,236,1.6,4.8,76,0.00,,,0.00,VWS V14.01,2013-08-07 23:36:00,
2013-08-07 19:41:00,83.0,75.1,29.88,SW,215,1.6,6.4,77,0.00,,,0.00,VWS V14.01,2013-08-07 23:41:00,
2013-08-07 19:46:00,82.5,74.9,29.89,WSW,253,8.0,14.4,78,0.00,,,0.00,VWS V14.01,2013-08-07 23:46:00,
2013-08-07 19:51:00,81.6,72.5,29.89,SW,229,4.8,12.8,74,0.00,,,0.00,VWS V14.01,2013-08-07 23:51:00,
2013-08-07 19:56:00,81.0,71.5,29.89,SW,236,6.4,8.0,73,0.00,,,0.00,VWS V14.01,2013-08-07 23:56:00,
2013-08-07 20:01:00,80.7,72.0,29.90,West,272,6.4,8.0,75,0.00,,,0.00,VWS V14.01,2013-08-08 00:01:00,
2013-08-07 20:06:00,79.9,72.4,29.90,NW,324,4.8,8.0,78,0.00,,,0.00,VWS V14.01,2013-08-08 00:06:00,
2013-08-07 20:11:00,78.6,72.3,29.90,West,265,1.6,8.0,81,0.00,,,0.00,VWS V14.01,2013-08-08 00:11:00,
2013-08-07 20:16:00,77.7,72.5,29.90,NW,305,0.0,1.6,84,0.00,,,0.00,VWS V14.01,2013-08-08 00:16:00,
2013-08-07 20:21:00,77.3,72.4,29.90,North,349,3.2,3.2,85,0.00,,,0.00,VWS V14.01,2013-08-08 00:21:00,
2013-08-07 20:26:00,76.8,72.6,29.91,North,8,0.0,3.2,87,0.00,,,0.00,VWS V14.01,2013-08-08 00:26:00,
2013-08-07 20:31:00,76.4,72.9,29.91,NW,321,4.8,4.8,89,0.00,,,0.00,VWS V14.01,2013-08-08 00:31:00,
2013-08-07 20:36:00,76.1,73.3,29.91,NW,320,4.8,6.4,91,0.00,,,0.00,VWS V14.01,2013-08-08 00:36:00,
2013-08-07 20:41:00,75.8,73.0,29.91,NNW,333,4.8,4.8,91,0.00,,,0.00,VWS V14.01,2013-08-08 00:41:00,
2013-08-07 20:46:00,75.7,73.2,29.91,WSW,243,1.6,3.2,92,0.00,,,0.00,VWS V14.01,2013-08-08 00:46:00,
2013-08-07 20:51:00,75.6,72.8,29.91,SW,218,3.2,4.8,91,0.00,,,0.00,VWS V14.01,2013-08-08 00:51:00,
2013-08-07 20:56:00,75.7,72.9,29.91,SE,142,0.0,1.6,91,0.00,,,0.00,VWS V14.01,2013-08-08 00:56:00,
2013-08-07 21:01:00,75.7,72.9,29.92,East,100,0.0,1.6,91,0.00,,,0.00,VWS V14.01,2013-08-08 01:01:00,
2013-08-07 21:06:00,75.7,72.9,29.92,East,95,1.6,1.6,91,0.00,,,0.00,VWS V14.01,2013-08-08 01:06:00,
2013-08-07 21:11:00,75.8,73.3,29.92,East,84,1.6,3.2,92,0.00,,,0.00,VWS V14.01,2013-08-08 01:11:00,
2013-08-07 21:15:00,75.6,73.1,29.92,ENE,62,1.6,3.2,92,0.00,,,0.00,VWS V14.01,2013-08-08 01:15:00,
2013-08-07 21:20:00,75.6,73.1,29.92,NE,44,0.0,1.6,92,0.00,,,0.00,VWS V14.01,2013-08-08 01:20:00,
2013-08-07 21:26:00,75.5,73.0,29.92,ESE,108,0.0,3.2,92,0.01,,,0.01,VWS V14.01,2013-08-08 01:26:00,
2013-08-07 21:31:00,75.4,72.9,29.92,ESE,108,0.0,0.0,92,0.01,,,0.01,VWS V14.01,2013-08-08 01:31:00,
2013-08-07 21:36:00,75.3,72.5,29.92,ESE,117,0.0,1.6,91,0.01,,,0.01,VWS V14.01,2013-08-08 01:36:00,
2013-08-07 21:40:00,75.1,72.3,29.92,ESE,117,0.0,0.0,91,0.01,,,0.01,VWS V14.01,2013-08-08 01:40:00,
2013-08-07 21:45:00,75.0,72.2,29.93,ESE,117,0.0,0.0,91,0.01,,,0.01,VWS V14.01,2013-08-08 01:45:00,
2013-08-07 21:50:00,75.0,72.2,29.93,ESE,108,1.6,1.6,91,0.01,,,0.01,VWS V14.01,2013-08-08 01:50:00,
2013-08-07 21:55:00,74.8,72.3,29.94,ESE,114,0.0,3.2,92,0.02,,,0.02,VWS V14.01,2013-08-08 01:55:00,
2013-08-07 22:00:00,74.7,71.9,29.94,ESE,110,0.0,0.0,91,0.02,,,0.02,VWS V14.01,2013-08-08 02:00:00,
2013-08-07 22:05:00,74.7,72.2,29.94,ESE,110,0.0,0.0,92,0.02,,,0.02,VWS V14.01,2013-08-08 02:05:00,
2013-08-07 22:10:00,74.6,72.1,29.94,ESE,120,0.0,1.6,92,0.02,,,0.02,VWS V14.01,2013-08-08 02:10:00,
2013-08-07 22:15:00,74.5,72.0,29.94,ESE,114,3.2,3.2,92,0.02,,,0.02,VWS V14.01,2013-08-08 02:15:00,
2013-08-07 22:20:00,74.5,71.7,29.94,ESE,114,1.6,3.2,91,0.02,,,0.02,VWS V14.01,2013-08-08 02:20:00,
2013-08-07 22:25:00,74.4,71.9,29.94,ESE,109,1.6,3.2,92,0.01,,,0.02,VWS V14.01,2013-08-08 02:25:00,
2013-08-07 22:30:00,74.4,71.9,29.94,ESE,120,1.6,1.6,92,0.01,,,0.02,VWS V14.01,2013-08-08 02:30:00,
2013-08-07 22:35:00,74.3,71.5,29.95,SE,128,1.6,1.6,91,0.01,,,0.02,VWS V14.01,2013-08-08 02:35:00,
2013-08-07 22:40:00,74.3,71.5,29.95,ESE,120,1.6,1.6,91,0.01,,,0.02,VWS V14.01,2013-08-08 02:40:00,
2013-08-07 22:45:00,74.2,71.4,29.95,SE,125,0.0,1.6,91,0.01,,,0.02,VWS V14.01,2013-08-08 02:45:00,
2013-08-07 22:50:00,74.3,71.5,29.95,SE,126,0.0,0.0,91,0.01,,,0.02,VWS V14.01,2013-08-08 02:50:00,
2013-08-07 22:55:00,74.2,71.4,29.95,ESE,121,0.0,0.0,91,0.01,,,0.02,VWS V14.01,2013-08-08 02:55:00,
2013-08-07 23:00:00,74.2,71.4,29.95,ESE,120,0.0,1.6,91,0.00,,,0.02,VWS V14.01,2013-08-08 03:00:00,
2013-08-07 23:05:00,74.2,71.4,29.95,ESE,111,0.0,0.0,91,0.00,,,0.02,VWS V14.01,2013-08-08 03:05:00,
2013-08-07 23:10:00,74.1,71.3,29.95,ESE,120,0.0,0.0,91,0.00,,,0.02,VWS V14.01,2013-08-08 03:10:00,
2013-08-07 23:15:00,74.1,71.6,29.95,ESE,111,0.0,0.0,92,0.00,,,0.02,VWS V14.01,2013-08-08 03:15:00,
2013-08-07 23:20:00,74.1,71.6,29.95,SE,141,3.2,3.2,92,0.00,,,0.02,VWS V14.01,2013-08-08 03:20:00,
2013-08-07 23:25:00,74.1,71.6,29.95,South,172,1.6,3.2,92,0.00,,,0.02,VWS V14.01,2013-08-08 03:25:00,
2013-08-07 23:30:00,74.1,71.6,29.96,South,175,1.6,6.4,92,0.00,,,0.02,VWS V14.01,2013-08-08 03:30:00,
2013-08-07 23:35:00,74.1,71.6,29.96,South,176,0.0,1.6,92,0.00,,,0.02,VWS V14.01,2013-08-08 03:35:00,
2013-08-07 23:40:00,74.3,71.5,29.96,SE,137,0.0,6.4,91,0.00,,,0.02,VWS V14.01,2013-08-08 03:40:00,
2013-08-07 23:45:00,74.3,71.5,29.96,ESE,122,0.0,1.6,91,0.00,,,0.02,VWS V14.01,2013-08-08 03:45:00,
2013-08-07 23:50:00,74.3,71.5,29.96,SSW,194,3.2,4.8,91,0.00,,,0.02,VWS V14.01,2013-08-08 03:50:00,
2013-08-07 23:55:00,74.3,71.8,29.96,SSW,211,3.2,9.6,92,0.00,,,0.02,VWS V14.01,2013-08-08 03:55:00,